sensor_id;sensor_type;location;lat;lon;timestamp;P1;durP1;ratioP1;P2;durP2;ratioP2
53203;SDS011;39086;54.424;18.456;2022-09-02T00:00:03;4.00;;;0.40;;
53203;SDS011;39086;54.424;18.456;2022-09-02T00:01:12;1.08;;;0.68;;
53203;SDS011;39086;54.424;18.456;2022-09-02T00:02:22;0.82;;;0.82;;
53203;SDS011;39086;54.424;18.456;2022-09-02T00:03:26;0.70;;;0.70;;
53203;SDS011;39086;54.424;18.456;2022-09-02T00:04:29;1.08;;;0.95;;
53203;SDS011;39086;54.424;18.456;2022-09-02T00:05:33;2.20;;;0.95;;
53203;SDS011;39086;54.424;18.456;2022-09-02T00:06:36;1.85;;;0.88;;
53203;SDS011;39086;54.424;18.456;2022-09-02T00:07:46;1.48;;;0.60;;
53203;SDS011;39086;54.424;18.456;2022-09-02T00:08:49;0.68;;;0.68;;
53203;SDS011;39086;54.424;18.456;2022-09-02T00:09:52;1.30;;;1.20;;
53203;SDS011;39086;54.424;18.456;2022-09-02T00:11:02;0.52;;;0.52;;
53203;SDS011;39086;54.424;18.456;2022-09-02T00:12:06;0.70;;;0.70;;
53203;SDS011;39086;54.424;18.456;2022-09-02T00:13:12;1.20;;;0.88;;
53203;SDS011;39086;54.424;18.456;2022-09-02T00:14:17;0.35;;;0.35;;
53203;SDS011;39086;54.424;18.456;2022-09-02T00:15:26;1.38;;;1.23;;
53203;SDS011;39086;54.424;18.456;2022-09-02T00:16:30;1.13;;;1.13;;
53203;SDS011;39086;54.424;18.456;2022-09-02T00:17:40;3.20;;;1.30;;
53203;SDS011;39086;54.424;18.456;2022-09-02T00:18:44;1.00;;;1.00;;
53203;SDS011;39086;54.424;18.456;2022-09-02T00:19:48;0.55;;;0.55;;
53203;SDS011;39086;54.424;18.456;2022-09-02T00:21:05;0.50;;;0.50;;
53203;SDS011;39086;54.424;18.456;2022-09-02T00:22:14;21.23;;;1.55;;
53203;SDS011;39086;54.424;18.456;2022-09-02T00:23:24;0.93;;;0.93;;
53203;SDS011;39086;54.424;18.456;2022-09-02T00:24:27;0.90;;;0.43;;
53203;SDS011;39086;54.424;18.456;2022-09-02T00:25:31;1.25;;;1.23;;
53203;SDS011;39086;54.424;18.456;2022-09-02T00:26:37;0.40;;;0.40;;
53203;SDS011;39086;54.424;18.456;2022-09-02T00:27:40;0.93;;;0.77;;
53203;SDS011;39086;54.424;18.456;2022-09-02T00:28:50;0.75;;;0.75;;
53203;SDS011;39086;54.424;18.456;2022-09-02T00:29:56;0.65;;;0.30;;
53203;SDS011;39086;54.424;18.456;2022-09-02T00:30:59;0.63;;;0.63;;
53203;SDS011;39086;54.424;18.456;2022-09-02T00:32:02;0.73;;;0.73;;
53203;SDS011;39086;54.424;18.456;2022-09-02T00:33:06;1.45;;;0.85;;
53203;SDS011;39086;54.424;18.456;2022-09-02T00:34:16;1.02;;;0.73;;
53203;SDS011;39086;54.424;18.456;2022-09-02T00:35:21;0.55;;;0.55;;
53203;SDS011;39086;54.424;18.456;2022-09-02T00:36:23;0.50;;;0.50;;
53203;SDS011;39086;54.424;18.456;2022-09-02T00:37:27;0.70;;;0.63;;
53203;SDS011;39086;54.424;18.456;2022-09-02T00:38:30;0.60;;;0.60;;
53203;SDS011;39086;54.424;18.456;2022-09-02T00:39:41;1.42;;;0.85;;
53203;SDS011;39086;54.424;18.456;2022-09-02T00:40:44;0.70;;;0.70;;
53203;SDS011;39086;54.424;18.456;2022-09-02T00:41:48;0.38;;;0.38;;
53203;SDS011;39086;54.424;18.456;2022-09-02T00:42:51;2.05;;;1.13;;
53203;SDS011;39086;54.424;18.456;2022-09-02T00:43:57;0.88;;;0.88;;
53203;SDS011;39086;54.424;18.456;2022-09-02T00:45:07;6.45;;;0.90;;
53203;SDS011;39086;54.424;18.456;2022-09-02T00:46:12;0.55;;;0.55;;
53203;SDS011;39086;54.424;18.456;2022-09-02T00:47:22;0.93;;;0.93;;
53203;SDS011;39086;54.424;18.456;2022-09-02T00:48:26;2.83;;;0.90;;
53203;SDS011;39086;54.424;18.456;2022-09-02T00:49:29;0.55;;;0.55;;
53203;SDS011;39086;54.424;18.456;2022-09-02T00:50:34;0.82;;;0.73;;
53203;SDS011;39086;54.424;18.456;2022-09-02T00:51:45;0.40;;;0.40;;
53203;SDS011;39086;54.424;18.456;2022-09-02T00:52:51;0.85;;;0.85;;
53203;SDS011;39086;54.424;18.456;2022-09-02T00:53:54;0.88;;;0.88;;
53203;SDS011;39086;54.424;18.456;2022-09-02T00:54:59;0.70;;;0.70;;
53203;SDS011;39086;54.424;18.456;2022-09-02T00:56:03;0.52;;;0.52;;
53203;SDS011;39086;54.424;18.456;2022-09-02T00:57:15;1.13;;;1.13;;
53203;SDS011;39086;54.424;18.456;2022-09-02T00:58:21;1.40;;;1.30;;
53203;SDS011;39086;54.424;18.456;2022-09-02T00:59:29;0.50;;;0.50;;
53203;SDS011;39086;54.424;18.456;2022-09-02T01:00:37;0.90;;;0.88;;
53203;SDS011;39086;54.424;18.456;2022-09-02T01:01:49;0.60;;;0.60;;
53203;SDS011;39086;54.424;18.456;2022-09-02T01:02:54;0.90;;;0.90;;
53203;SDS011;39086;54.424;18.456;2022-09-02T01:03:57;1.85;;;0.85;;
53203;SDS011;39086;54.424;18.456;2022-09-02T01:05:01;0.77;;;0.77;;
53203;SDS011;39086;54.424;18.456;2022-09-02T01:06:04;0.90;;;0.90;;
53203;SDS011;39086;54.424;18.456;2022-09-02T01:07:15;0.98;;;0.98;;
53203;SDS011;39086;54.424;18.456;2022-09-02T01:08:19;0.60;;;0.60;;
53203;SDS011;39086;54.424;18.456;2022-09-02T01:09:25;0.90;;;0.60;;
53203;SDS011;39086;54.424;18.456;2022-09-02T01:10:28;1.42;;;1.33;;
53203;SDS011;39086;54.424;18.456;2022-09-02T01:11:42;0.82;;;0.82;;
53203;SDS011;39086;54.424;18.456;2022-09-02T01:12:48;0.88;;;0.88;;
53203;SDS011;39086;54.424;18.456;2022-09-02T01:13:50;0.50;;;0.50;;
53203;SDS011;39086;54.424;18.456;2022-09-02T01:14:55;0.52;;;0.52;;
53203;SDS011;39086;54.424;18.456;2022-09-02T01:16:01;0.85;;;0.85;;
53203;SDS011;39086;54.424;18.456;2022-09-02T01:17:12;0.70;;;0.70;;
53203;SDS011;39086;54.424;18.456;2022-09-02T01:18:20;2.97;;;0.98;;
53203;SDS011;39086;54.424;18.456;2022-09-02T01:19:26;0.30;;;0.28;;
53203;SDS011;39086;54.424;18.456;2022-09-02T01:20:43;0.32;;;0.32;;
53203;SDS011;39086;54.424;18.456;2022-09-02T01:21:55;0.73;;;0.73;;
53203;SDS011;39086;54.424;18.456;2022-09-02T01:23:04;0.47;;;0.47;;
53203;SDS011;39086;54.424;18.456;2022-09-02T01:24:08;0.65;;;0.50;;
53203;SDS011;39086;54.424;18.456;2022-09-02T01:25:12;0.75;;;0.75;;
53203;SDS011;39086;54.424;18.456;2022-09-02T01:26:16;0.68;;;0.68;;
53203;SDS011;39086;54.424;18.456;2022-09-02T01:27:20;0.45;;;0.45;;
53203;SDS011;39086;54.424;18.456;2022-09-02T01:28:31;0.63;;;0.63;;
53203;SDS011;39086;54.424;18.456;2022-09-02T01:29:34;0.22;;;0.22;;
53203;SDS011;39086;54.424;18.456;2022-09-02T01:30:39;0.40;;;0.40;;
53203;SDS011;39086;54.424;18.456;2022-09-02T01:31:42;0.70;;;0.70;;
53203;SDS011;39086;54.424;18.456;2022-09-02T01:32:46;0.60;;;0.60;;
53203;SDS011;39086;54.424;18.456;2022-09-02T01:33:55;6.35;;;0.85;;
53203;SDS011;39086;54.424;18.456;2022-09-02T01:35:00;0.90;;;0.90;;
53203;SDS011;39086;54.424;18.456;2022-09-02T01:36:02;0.60;;;0.60;;
53203;SDS011;39086;54.424;18.456;2022-09-02T01:37:13;0.60;;;0.60;;
53203;SDS011;39086;54.424;18.456;2022-09-02T01:38:16;1.23;;;0.77;;
53203;SDS011;39086;54.424;18.456;2022-09-02T01:39:26;0.82;;;0.82;;
53203;SDS011;39086;54.424;18.456;2022-09-02T01:40:29;0.65;;;0.65;;
53203;SDS011;39086;54.424;18.456;2022-09-02T01:41:33;1.15;;;1.00;;
53203;SDS011;39086;54.424;18.456;2022-09-02T01:42:36;0.63;;;0.63;;
53203;SDS011;39086;54.424;18.456;2022-09-02T01:43:39;0.40;;;0.40;;
53203;SDS011;39086;54.424;18.456;2022-09-02T01:44:48;0.77;;;0.77;;
53203;SDS011;39086;54.424;18.456;2022-09-02T01:45:53;0.85;;;0.85;;
53203;SDS011;39086;54.424;18.456;2022-09-02T01:46:56;8.65;;;1.55;;
53203;SDS011;39086;54.424;18.456;2022-09-02T01:48:00;0.20;;;0.20;;
53203;SDS011;39086;54.424;18.456;2022-09-02T01:49:03;0.35;;;0.35;;
53203;SDS011;39086;54.424;18.456;2022-09-02T01:50:13;0.35;;;0.30;;
53203;SDS011;39086;54.424;18.456;2022-09-02T01:51:17;0.55;;;0.55;;
53203;SDS011;39086;54.424;18.456;2022-09-02T01:52:23;0.40;;;0.40;;
53203;SDS011;39086;54.424;18.456;2022-09-02T01:53:26;0.40;;;0.40;;
53203;SDS011;39086;54.424;18.456;2022-09-02T01:54:30;0.25;;;0.25;;
53203;SDS011;39086;54.424;18.456;2022-09-02T01:55:39;0.10;;;0.10;;
53203;SDS011;39086;54.424;18.456;2022-09-02T01:56:49;0.20;;;0.20;;
53203;SDS011;39086;54.424;18.456;2022-09-02T01:57:52;0.40;;;0.40;;
53203;SDS011;39086;54.424;18.456;2022-09-02T01:58:55;0.45;;;0.45;;
53203;SDS011;39086;54.424;18.456;2022-09-02T01:59:58;0.30;;;0.30;;
53203;SDS011;39086;54.424;18.456;2022-09-02T02:01:11;0.20;;;0.20;;
53203;SDS011;39086;54.424;18.456;2022-09-02T02:02:14;0.30;;;0.30;;
53203;SDS011;39086;54.424;18.456;2022-09-02T02:03:20;0.77;;;0.77;;
53203;SDS011;39086;54.424;18.456;2022-09-02T02:04:25;0.10;;;0.10;;
53203;SDS011;39086;54.424;18.456;2022-09-02T02:05:36;1.20;;;1.10;;
53203;SDS011;39086;54.424;18.456;2022-09-02T02:06:45;0.30;;;0.30;;
53203;SDS011;39086;54.424;18.456;2022-09-02T02:07:55;0.28;;;0.28;;
53203;SDS011;39086;54.424;18.456;2022-09-02T02:08:57;0.10;;;0.10;;
53203;SDS011;39086;54.424;18.456;2022-09-02T02:10:01;5.10;;;0.52;;
53203;SDS011;39086;54.424;18.456;2022-09-02T02:11:05;0.43;;;0.43;;
53203;SDS011;39086;54.424;18.456;2022-09-02T02:12:15;0.38;;;0.38;;
53203;SDS011;39086;54.424;18.456;2022-09-02T02:13:18;0.20;;;0.20;;
53203;SDS011;39086;54.424;18.456;2022-09-02T02:14:22;0.20;;;0.20;;
53203;SDS011;39086;54.424;18.456;2022-09-02T02:15:24;0.45;;;0.30;;
53203;SDS011;39086;54.424;18.456;2022-09-02T02:16:27;0.52;;;0.40;;
53203;SDS011;39086;54.424;18.456;2022-09-02T02:17:36;0.52;;;0.52;;
53203;SDS011;39086;54.424;18.456;2022-09-02T02:18:40;0.22;;;0.22;;
53203;SDS011;39086;54.424;18.456;2022-09-02T02:19:42;0.30;;;0.30;;
53203;SDS011;39086;54.424;18.456;2022-09-02T02:20:59;0.43;;;0.43;;
53203;SDS011;39086;54.424;18.456;2022-09-02T02:22:08;0.55;;;0.55;;
53203;SDS011;39086;54.424;18.456;2022-09-02T02:23:20;0.15;;;0.15;;
53203;SDS011;39086;54.424;18.456;2022-09-02T02:24:28;0.50;;;0.50;;
53203;SDS011;39086;54.424;18.456;2022-09-02T02:25:31;0.20;;;0.20;;
53203;SDS011;39086;54.424;18.456;2022-09-02T02:26:34;0.30;;;0.30;;
53203;SDS011;39086;54.424;18.456;2022-09-02T02:27:38;0.30;;;0.30;;
53203;SDS011;39086;54.424;18.456;2022-09-02T02:28:47;0.17;;;0.17;;
53203;SDS011;39086;54.424;18.456;2022-09-02T02:29:51;0.10;;;0.10;;
53203;SDS011;39086;54.424;18.456;2022-09-02T02:30:54;0.22;;;0.22;;
53203;SDS011;39086;54.424;18.456;2022-09-02T02:32:05;0.82;;;0.40;;
53203;SDS011;39086;54.424;18.456;2022-09-02T02:33:08;0.20;;;0.20;;
53203;SDS011;39086;54.424;18.456;2022-09-02T02:34:18;0.20;;;0.20;;
53203;SDS011;39086;54.424;18.456;2022-09-02T02:35:21;0.25;;;0.25;;
53203;SDS011;39086;54.424;18.456;2022-09-02T02:36:25;0.22;;;0.22;;
53203;SDS011;39086;54.424;18.456;2022-09-02T02:37:28;0.10;;;0.10;;
53203;SDS011;39086;54.424;18.456;2022-09-02T02:38:33;0.20;;;0.20;;
53203;SDS011;39086;54.424;18.456;2022-09-02T02:39:42;1.55;;;0.55;;
53203;SDS011;39086;54.424;18.456;2022-09-02T02:40:53;0.20;;;0.20;;
53203;SDS011;39086;54.424;18.456;2022-09-02T02:41:55;0.10;;;0.10;;
53203;SDS011;39086;54.424;18.456;2022-09-02T02:43:00;0.10;;;0.10;;
53203;SDS011;39086;54.424;18.456;2022-09-02T02:44:03;0.13;;;0.13;;
53203;SDS011;39086;54.424;18.456;2022-09-02T02:45:13;0.30;;;0.30;;
53203;SDS011;39086;54.424;18.456;2022-09-02T02:46:16;0.22;;;0.22;;
53203;SDS011;39086;54.424;18.456;2022-09-02T02:47:19;0.22;;;0.22;;
53203;SDS011;39086;54.424;18.456;2022-09-02T02:48:22;0.45;;;0.45;;
53203;SDS011;39086;54.424;18.456;2022-09-02T02:49:26;1.23;;;0.90;;
53203;SDS011;39086;54.424;18.456;2022-09-02T02:50:35;0.30;;;0.30;;
53203;SDS011;39086;54.424;18.456;2022-09-02T02:51:39;0.10;;;0.10;;
53203;SDS011;39086;54.424;18.456;2022-09-02T02:52:42;2.92;;;0.50;;
53203;SDS011;39086;54.424;18.456;2022-09-02T02:53:47;0.38;;;0.38;;
53203;SDS011;39086;54.424;18.456;2022-09-02T02:54:49;0.63;;;0.63;;
53203;SDS011;39086;54.424;18.456;2022-09-02T02:55:59;0.20;;;0.20;;
53203;SDS011;39086;54.424;18.456;2022-09-02T02:57:08;0.40;;;0.40;;
53203;SDS011;39086;54.424;18.456;2022-09-02T02:58:12;0.20;;;0.20;;
53203;SDS011;39086;54.424;18.456;2022-09-02T02:59:17;0.40;;;0.40;;
53203;SDS011;39086;54.424;18.456;2022-09-02T03:00:21;0.30;;;0.30;;
53203;SDS011;39086;54.424;18.456;2022-09-02T03:01:31;0.40;;;0.40;;
53203;SDS011;39086;54.424;18.456;2022-09-02T03:02:35;0.20;;;0.20;;
53203;SDS011;39086;54.424;18.456;2022-09-02T03:03:45;0.30;;;0.30;;
53203;SDS011;39086;54.424;18.456;2022-09-02T03:04:48;0.20;;;0.20;;
53203;SDS011;39086;54.424;18.456;2022-09-02T03:05:54;0.10;;;0.10;;
53203;SDS011;39086;54.424;18.456;2022-09-02T03:06:57;0.20;;;0.20;;
53203;SDS011;39086;54.424;18.456;2022-09-02T03:08:08;0.30;;;0.30;;
53203;SDS011;39086;54.424;18.456;2022-09-02T03:09:13;0.10;;;0.10;;
53203;SDS011;39086;54.424;18.456;2022-09-02T03:10:16;0.60;;;0.60;;
53203;SDS011;39086;54.424;18.456;2022-09-02T03:11:19;0.30;;;0.30;;
53203;SDS011;39086;54.424;18.456;2022-09-02T03:12:23;0.10;;;0.10;;
53203;SDS011;39086;54.424;18.456;2022-09-02T03:13:33;1.05;;;0.55;;
53203;SDS011;39086;54.424;18.456;2022-09-02T03:14:36;0.22;;;0.22;;
53203;SDS011;39086;54.424;18.456;2022-09-02T03:15:40;0.15;;;0.15;;
53203;SDS011;39086;54.424;18.456;2022-09-02T03:16:43;5.97;;;0.60;;
53203;SDS011;39086;54.424;18.456;2022-09-02T03:17:46;0.20;;;0.20;;
53203;SDS011;39086;54.424;18.456;2022-09-02T03:18:55;0.20;;;0.20;;
53203;SDS011;39086;54.424;18.456;2022-09-02T03:20:06;0.35;;;0.35;;
53203;SDS011;39086;54.424;18.456;2022-09-02T03:21:22;0.38;;;0.38;;
53203;SDS011;39086;54.424;18.456;2022-09-02T03:22:26;1.65;;;0.45;;
53203;SDS011;39086;54.424;18.456;2022-09-02T03:23:35;0.28;;;0.28;;
53203;SDS011;39086;54.424;18.456;2022-09-02T03:24:40;0.40;;;0.40;;
53203;SDS011;39086;54.424;18.456;2022-09-02T03:25:43;0.15;;;0.15;;
53203;SDS011;39086;54.424;18.456;2022-09-02T03:26:47;0.10;;;0.10;;
53203;SDS011;39086;54.424;18.456;2022-09-02T03:27:49;0.10;;;0.10;;
53203;SDS011;39086;54.424;18.456;2022-09-02T03:29:01;0.82;;;0.63;;
53203;SDS011;39086;54.424;18.456;2022-09-02T03:30:05;0.20;;;0.20;;
53203;SDS011;39086;54.424;18.456;2022-09-02T03:31:16;0.20;;;0.20;;
53203;SDS011;39086;54.424;18.456;2022-09-02T03:32:19;0.40;;;0.40;;
53203;SDS011;39086;54.424;18.456;2022-09-02T03:33:26;0.20;;;0.20;;
53203;SDS011;39086;54.424;18.456;2022-09-02T03:34:29;0.20;;;0.20;;
53203;SDS011;39086;54.424;18.456;2022-09-02T03:35:40;0.32;;;0.32;;
53203;SDS011;39086;54.424;18.456;2022-09-02T03:36:42;0.40;;;0.35;;
53203;SDS011;39086;54.424;18.456;2022-09-02T03:37:46;0.40;;;0.40;;
53203;SDS011;39086;54.424;18.456;2022-09-02T03:38:49;0.20;;;0.20;;
53203;SDS011;39086;54.424;18.456;2022-09-02T03:40:02;0.20;;;0.20;;
53203;SDS011;39086;54.424;18.456;2022-09-02T03:41:04;0.20;;;0.20;;
53203;SDS011;39086;54.424;18.456;2022-09-02T03:42:08;0.10;;;0.10;;
53203;SDS011;39086;54.424;18.456;2022-09-02T03:43:19;0.30;;;0.30;;
53203;SDS011;39086;54.424;18.456;2022-09-02T03:44:23;0.20;;;0.20;;
53203;SDS011;39086;54.424;18.456;2022-09-02T03:45:32;0.40;;;0.40;;
53203;SDS011;39086;54.424;18.456;2022-09-02T03:46:35;0.43;;;0.43;;
53203;SDS011;39086;54.424;18.456;2022-09-02T03:47:46;0.30;;;0.30;;
53203;SDS011;39086;54.424;18.456;2022-09-02T03:48:54;0.43;;;0.43;;
53203;SDS011;39086;54.424;18.456;2022-09-02T03:49:56;0.20;;;0.20;;
53203;SDS011;39086;54.424;18.456;2022-09-02T03:51:00;0.40;;;0.40;;
53203;SDS011;39086;54.424;18.456;2022-09-02T03:52:03;0.10;;;0.10;;
53203;SDS011;39086;54.424;18.456;2022-09-02T03:53:14;0.20;;;0.20;;
53203;SDS011;39086;54.424;18.456;2022-09-02T03:54:20;0.30;;;0.30;;
53203;SDS011;39086;54.424;18.456;2022-09-02T03:55:31;0.60;;;0.60;;
53203;SDS011;39086;54.424;18.456;2022-09-02T03:56:34;0.20;;;0.20;;
53203;SDS011;39086;54.424;18.456;2022-09-02T03:57:38;0.38;;;0.38;;
53203;SDS011;39086;54.424;18.456;2022-09-02T03:58:41;0.40;;;0.40;;
53203;SDS011;39086;54.424;18.456;2022-09-02T03:59:52;0.30;;;0.30;;
53203;SDS011;39086;54.424;18.456;2022-09-02T04:01:01;0.25;;;0.25;;
53203;SDS011;39086;54.424;18.456;2022-09-02T04:02:05;1.27;;;0.55;;
53203;SDS011;39086;54.424;18.456;2022-09-02T04:03:07;0.43;;;0.43;;
53203;SDS011;39086;54.424;18.456;2022-09-02T04:04:11;0.57;;;0.57;;
53203;SDS011;39086;54.424;18.456;2022-09-02T04:05:15;0.10;;;0.10;;
53203;SDS011;39086;54.424;18.456;2022-09-02T04:06:25;1.05;;;0.40;;
53203;SDS011;39086;54.424;18.456;2022-09-02T04:07:33;0.30;;;0.30;;
53203;SDS011;39086;54.424;18.456;2022-09-02T04:08:36;1.00;;;0.77;;
53203;SDS011;39086;54.424;18.456;2022-09-02T04:09:39;0.52;;;0.52;;
53203;SDS011;39086;54.424;18.456;2022-09-02T04:10:48;0.55;;;0.55;;
53203;SDS011;39086;54.424;18.456;2022-09-02T04:11:57;2.08;;;0.52;;
53203;SDS011;39086;54.424;18.456;2022-09-02T04:13:00;0.50;;;0.50;;
53203;SDS011;39086;54.424;18.456;2022-09-02T04:14:04;1.00;;;1.00;;
53203;SDS011;39086;54.424;18.456;2022-09-02T04:15:08;0.40;;;0.40;;
53203;SDS011;39086;54.424;18.456;2022-09-02T04:16:12;1.45;;;1.35;;
53203;SDS011;39086;54.424;18.456;2022-09-02T04:17:22;0.43;;;0.43;;
53203;SDS011;39086;54.424;18.456;2022-09-02T04:18:25;0.40;;;0.40;;
53203;SDS011;39086;54.424;18.456;2022-09-02T04:19:38;0.30;;;0.30;;
53203;SDS011;39086;54.424;18.456;2022-09-02T04:20:57;0.20;;;0.20;;
53203;SDS011;39086;54.424;18.456;2022-09-02T04:22:01;0.65;;;0.65;;
53203;SDS011;39086;54.424;18.456;2022-09-02T04:23:04;0.40;;;0.40;;
53203;SDS011;39086;54.424;18.456;2022-09-02T04:24:08;1.23;;;0.60;;
53203;SDS011;39086;54.424;18.456;2022-09-02T04:25:12;1.23;;;0.68;;
53203;SDS011;39086;54.424;18.456;2022-09-02T04:26:29;1.17;;;1.17;;
53203;SDS011;39086;54.424;18.456;2022-09-02T04:27:33;5.20;;;1.30;;
53203;SDS011;39086;54.424;18.456;2022-09-02T04:28:42;3.80;;;2.22;;
53203;SDS011;39086;54.424;18.456;2022-09-02T04:29:45;4.63;;;1.58;;
53203;SDS011;39086;54.424;18.456;2022-09-02T04:30:49;5.97;;;2.60;;
53203;SDS011;39086;54.424;18.456;2022-09-02T04:31:59;7.55;;;1.48;;
53203;SDS011;39086;54.424;18.456;2022-09-02T04:33:02;1.02;;;1.02;;
53203;SDS011;39086;54.424;18.456;2022-09-02T04:34:05;1.02;;;0.85;;
53203;SDS011;39086;54.424;18.456;2022-09-02T04:35:08;2.42;;;0.75;;
53203;SDS011;39086;54.424;18.456;2022-09-02T04:36:12;0.55;;;0.55;;
53203;SDS011;39086;54.424;18.456;2022-09-02T04:37:24;2.83;;;0.80;;
53203;SDS011;39086;54.424;18.456;2022-09-02T04:38:28;1.20;;;1.20;;
53203;SDS011;39086;54.424;18.456;2022-09-02T04:39:30;0.95;;;0.95;;
53203;SDS011;39086;54.424;18.456;2022-09-02T04:40:34;0.68;;;0.68;;
53203;SDS011;39086;54.424;18.456;2022-09-02T04:41:38;5.82;;;0.93;;
53203;SDS011;39086;54.424;18.456;2022-09-02T04:42:49;0.82;;;0.82;;
53203;SDS011;39086;54.424;18.456;2022-09-02T04:43:56;0.77;;;0.77;;
53203;SDS011;39086;54.424;18.456;2022-09-02T04:44:59;1.85;;;1.17;;
53203;SDS011;39086;54.424;18.456;2022-09-02T04:46:03;0.50;;;0.50;;
53203;SDS011;39086;54.424;18.456;2022-09-02T04:47:06;1.10;;;0.55;;
53203;SDS011;39086;54.424;18.456;2022-09-02T04:48:16;1.08;;;0.70;;
53203;SDS011;39086;54.424;18.456;2022-09-02T04:49:19;0.85;;;0.85;;
53203;SDS011;39086;54.424;18.456;2022-09-02T04:50:23;0.28;;;0.28;;
53203;SDS011;39086;54.424;18.456;2022-09-02T04:51:26;0.50;;;0.50;;
53203;SDS011;39086;54.424;18.456;2022-09-02T04:52:30;0.75;;;0.57;;
53203;SDS011;39086;54.424;18.456;2022-09-02T04:53:39;0.30;;;0.30;;
53203;SDS011;39086;54.424;18.456;2022-09-02T04:54:44;0.55;;;0.55;;
53203;SDS011;39086;54.424;18.456;2022-09-02T04:55:46;0.60;;;0.60;;
53203;SDS011;39086;54.424;18.456;2022-09-02T04:56:59;0.93;;;0.93;;
53203;SDS011;39086;54.424;18.456;2022-09-02T04:58:02;0.65;;;0.65;;
53203;SDS011;39086;54.424;18.456;2022-09-02T04:59:12;0.30;;;0.30;;
53203;SDS011;39086;54.424;18.456;2022-09-02T05:00:15;0.85;;;0.85;;
53203;SDS011;39086;54.424;18.456;2022-09-02T05:01:26;1.17;;;1.17;;
53203;SDS011;39086;54.424;18.456;2022-09-02T05:02:29;1.55;;;0.85;;
53203;SDS011;39086;54.424;18.456;2022-09-02T05:03:33;0.65;;;0.65;;
53203;SDS011;39086;54.424;18.456;2022-09-02T05:04:36;2.53;;;0.80;;
53203;SDS011;39086;54.424;18.456;2022-09-02T05:05:39;2.13;;;1.75;;
53203;SDS011;39086;54.424;18.456;2022-09-02T05:06:48;3.70;;;2.05;;
53203;SDS011;39086;54.424;18.456;2022-09-02T05:07:51;4.38;;;2.38;;
53203;SDS011;39086;54.424;18.456;2022-09-02T05:08:56;7.22;;;5.43;;
53203;SDS011;39086;54.424;18.456;2022-09-02T05:10:01;14.00;;;7.30;;
53203;SDS011;39086;54.424;18.456;2022-09-02T05:11:11;12.70;;;5.03;;
53203;SDS011;39086;54.424;18.456;2022-09-02T05:12:16;20.42;;;6.65;;
53203;SDS011;39086;54.424;18.456;2022-09-02T05:13:19;17.45;;;6.57;;
53203;SDS011;39086;54.424;18.456;2022-09-02T05:14:24;12.93;;;4.35;;
53203;SDS011;39086;54.424;18.456;2022-09-02T05:15:29;8.13;;;4.28;;
53203;SDS011;39086;54.424;18.456;2022-09-02T05:16:40;5.57;;;1.88;;
53203;SDS011;39086;54.424;18.456;2022-09-02T05:17:43;0.52;;;0.52;;
53203;SDS011;39086;54.424;18.456;2022-09-02T05:18:47;3.15;;;0.70;;
53203;SDS011;39086;54.424;18.456;2022-09-02T05:19:50;0.50;;;0.50;;
53203;SDS011;39086;54.424;18.456;2022-09-02T05:21:07;0.85;;;0.85;;
53203;SDS011;39086;54.424;18.456;2022-09-02T05:22:10;4.60;;;0.73;;
53203;SDS011;39086;54.424;18.456;2022-09-02T05:23:13;0.45;;;0.45;;
53203;SDS011;39086;54.424;18.456;2022-09-02T05:24:19;2.72;;;1.00;;
53203;SDS011;39086;54.424;18.456;2022-09-02T05:25:27;0.50;;;0.50;;
53203;SDS011;39086;54.424;18.456;2022-09-02T05:26:37;3.80;;;0.82;;
53203;SDS011;39086;54.424;18.456;2022-09-02T05:27:42;0.77;;;0.77;;
53203;SDS011;39086;54.424;18.456;2022-09-02T05:28:52;0.22;;;0.22;;
53203;SDS011;39086;54.424;18.456;2022-09-02T05:29:55;0.60;;;0.60;;
53203;SDS011;39086;54.424;18.456;2022-09-02T05:31:01;0.50;;;0.50;;
53203;SDS011;39086;54.424;18.456;2022-09-02T05:32:06;0.57;;;0.57;;
53203;SDS011;39086;54.424;18.456;2022-09-02T05:33:15;0.40;;;0.40;;
53203;SDS011;39086;54.424;18.456;2022-09-02T05:34:18;1.73;;;0.85;;
53203;SDS011;39086;54.424;18.456;2022-09-02T05:35:23;0.73;;;0.73;;
53203;SDS011;39086;54.424;18.456;2022-09-02T05:36:26;0.30;;;0.30;;
53203;SDS011;39086;54.424;18.456;2022-09-02T05:37:29;0.20;;;0.20;;
53203;SDS011;39086;54.424;18.456;2022-09-02T05:38:39;1.13;;;1.02;;
53203;SDS011;39086;54.424;18.456;2022-09-02T05:39:42;1.05;;;1.02;;
53203;SDS011;39086;54.424;18.456;2022-09-02T05:40:45;0.60;;;0.60;;
53203;SDS011;39086;54.424;18.456;2022-09-02T05:41:48;0.17;;;0.17;;
53203;SDS011;39086;54.424;18.456;2022-09-02T05:42:53;0.47;;;0.47;;
53203;SDS011;39086;54.424;18.456;2022-09-02T05:44:03;1.65;;;0.73;;
53203;SDS011;39086;54.424;18.456;2022-09-02T05:45:07;0.32;;;0.32;;
53203;SDS011;39086;54.424;18.456;2022-09-02T05:46:11;0.70;;;0.70;;
53203;SDS011;39086;54.424;18.456;2022-09-02T05:47:18;0.50;;;0.50;;
53203;SDS011;39086;54.424;18.456;2022-09-02T05:48:28;0.82;;;0.82;;
53203;SDS011;39086;54.424;18.456;2022-09-02T05:49:49;0.55;;;0.55;;
53203;SDS011;39086;54.424;18.456;2022-09-02T05:50:52;0.80;;;0.80;;
53203;SDS011;39086;54.424;18.456;2022-09-02T05:51:58;0.50;;;0.50;;
53203;SDS011;39086;54.424;18.456;2022-09-02T05:53:04;1.60;;;0.90;;
53203;SDS011;39086;54.424;18.456;2022-09-02T05:54:16;0.22;;;0.22;;
53203;SDS011;39086;54.424;18.456;2022-09-02T05:55:27;1.17;;;0.95;;
53203;SDS011;39086;54.424;18.456;2022-09-02T05:56:30;7.03;;;0.85;;
53203;SDS011;39086;54.424;18.456;2022-09-02T05:57:33;0.30;;;0.30;;
53203;SDS011;39086;54.424;18.456;2022-09-02T05:58:38;0.55;;;0.55;;
53203;SDS011;39086;54.424;18.456;2022-09-02T05:59:40;0.55;;;0.55;;
53203;SDS011;39086;54.424;18.456;2022-09-02T06:00:51;1.40;;;1.40;;
53203;SDS011;39086;54.424;18.456;2022-09-02T06:01:54;3.13;;;0.32;;
53203;SDS011;39086;54.424;18.456;2022-09-02T06:02:58;0.20;;;0.20;;
53203;SDS011;39086;54.424;18.456;2022-09-02T06:04:01;0.30;;;0.30;;
53203;SDS011;39086;54.424;18.456;2022-09-02T06:05:05;0.40;;;0.40;;
53203;SDS011;39086;54.424;18.456;2022-09-02T06:06:18;0.40;;;0.40;;
53203;SDS011;39086;54.424;18.456;2022-09-02T06:07:29;0.40;;;0.40;;
53203;SDS011;39086;54.424;18.456;2022-09-02T06:08:32;0.40;;;0.40;;
53203;SDS011;39086;54.424;18.456;2022-09-02T06:09:36;0.73;;;0.73;;
53203;SDS011;39086;54.424;18.456;2022-09-02T06:10:41;2.70;;;0.70;;
53203;SDS011;39086;54.424;18.456;2022-09-02T06:11:45;0.20;;;0.20;;
53203;SDS011;39086;54.424;18.456;2022-09-02T06:12:56;0.20;;;0.20;;
53203;SDS011;39086;54.424;18.456;2022-09-02T06:14:01;0.28;;;0.28;;
53203;SDS011;39086;54.424;18.456;2022-09-02T06:15:07;0.40;;;0.40;;
53203;SDS011;39086;54.424;18.456;2022-09-02T06:16:12;0.40;;;0.32;;
53203;SDS011;39086;54.424;18.456;2022-09-02T06:17:22;0.63;;;0.25;;
53203;SDS011;39086;54.424;18.456;2022-09-02T06:18:26;0.28;;;0.28;;
53203;SDS011;39086;54.424;18.456;2022-09-02T06:19:29;3.70;;;2.55;;
53203;SDS011;39086;54.424;18.456;2022-09-02T06:20:33;2.40;;;1.38;;
53203;SDS011;39086;54.424;18.456;2022-09-02T06:21:49;4.18;;;2.95;;
53203;SDS011;39086;54.424;18.456;2022-09-02T06:22:59;1.50;;;1.40;;
53203;SDS011;39086;54.424;18.456;2022-09-02T06:24:03;3.63;;;3.30;;
53203;SDS011;39086;54.424;18.456;2022-09-02T06:25:07;2.03;;;1.92;;
53203;SDS011;39086;54.424;18.456;2022-09-02T06:26:11;3.15;;;2.70;;
53203;SDS011;39086;54.424;18.456;2022-09-02T06:27:14;4.07;;;2.78;;
53203;SDS011;39086;54.424;18.456;2022-09-02T06:28:27;28.27;;;5.15;;
53203;SDS011;39086;54.424;18.456;2022-09-02T06:29:31;5.63;;;4.40;;
53203;SDS011;39086;54.424;18.456;2022-09-02T06:30:36;10.70;;;5.57;;